createdAt,value
2022-10-09T00:00:52.650Z,100827.56
2022-10-09T00:03:19.290Z,100826.72
2022-10-09T00:05:46.215Z,100818.12
2022-10-09T00:08:12.791Z,100834.09
2022-10-09T00:10:43.512Z,100826.50
2022-10-09T00:13:10.527Z,100832.84
2022-10-09T00:15:43.117Z,100828.28
2022-10-09T00:18:11.455Z,100823.72
2022-10-09T00:20:44.011Z,100828.53
2022-10-09T00:23:14.562Z,100835.97
2022-10-09T00:25:51.028Z,100829.78
2022-10-09T00:28:17.640Z,100833.59
2022-10-09T00:30:44.266Z,100823.19
2022-10-09T00:33:10.877Z,100817.81
2022-10-09T00:35:40.913Z,100817.91
2022-10-09T00:38:08.472Z,100813.06
2022-10-09T00:40:36.496Z,100813.81
2022-10-09T00:43:04.452Z,100804.44
2022-10-09T00:45:31.769Z,100811.06
2022-10-09T00:48:02.400Z,100813.44
2022-10-09T00:50:42.376Z,100802.78
2022-10-09T00:53:13.177Z,100795.84
2022-10-09T00:55:40.195Z,100799.87
2022-10-09T00:58:07.047Z,100803.09
2022-10-09T01:00:33.601Z,100796.09
2022-10-09T01:03:00.151Z,100790.66
2022-10-09T01:05:54.986Z,100793.78
2022-10-09T01:08:56.761Z,100790.25
2022-10-09T01:11:50.267Z,100787.81
2022-10-09T01:14:16.720Z,100791.03
2022-10-09T01:16:56.496Z,100794.97
2022-10-09T01:19:32.239Z,100791.53
2022-10-09T01:23:00.524Z,100784.72
2022-10-09T01:25:51.368Z,100776.94
2022-10-09T01:28:21.212Z,100782.00
2022-10-09T01:30:48.854Z,100785.78
2022-10-09T01:33:16.570Z,100794.00
2022-10-09T01:35:45.751Z,100782.50
2022-10-09T01:38:12.337Z,100776.16
2022-10-09T01:40:39.386Z,100779.34
2022-10-09T01:43:05.979Z,100784.22
2022-10-09T01:45:41.595Z,100785.41
2022-10-09T01:48:14.035Z,100779.75
2022-10-09T01:50:44.822Z,100792.13
2022-10-09T01:53:19.263Z,100793.13
2022-10-09T01:56:11.676Z,100800.97
2022-10-09T01:58:54.898Z,100784.47
2022-10-09T02:01:27.237Z,100793.34
2022-10-09T02:03:56.216Z,100787.16
2022-10-09T02:06:23.915Z,100789.16
2022-10-09T02:08:53.103Z,100801.34
2022-10-09T02:11:19.862Z,100807.06
2022-10-09T02:13:48.640Z,100801.06
2022-10-09T02:16:15.285Z,100808.84
2022-10-09T02:19:07.297Z,100805.88
2022-10-09T02:21:46.518Z,100817.81
2022-10-09T02:24:20.575Z,100810.84
2022-10-09T02:26:47.466Z,100813.00
2022-10-09T02:29:15.670Z,100815.31
2022-10-09T02:31:43.905Z,100819.87
2022-10-09T02:34:16.099Z,100814.50
2022-10-09T02:36:42.701Z,100809.84
2022-10-09T02:39:09.595Z,100816.53
2022-10-09T02:41:36.168Z,100820.41
2022-10-09T02:44:04.587Z,100815.31
2022-10-09T02:46:31.670Z,100818.34
2022-10-09T02:48:58.379Z,100822.19
2022-10-09T02:51:25.451Z,100827.44
2022-10-09T02:53:53.907Z,100830.41
2022-10-09T02:56:22.382Z,100830.88
2022-10-09T02:58:49.458Z,100833.91
2022-10-09T03:01:16.293Z,100846.00
2022-10-09T03:03:42.908Z,100839.25
2022-10-09T03:06:15.047Z,100835.62
2022-10-09T03:08:43.985Z,100836.41
2022-10-09T03:11:11.708Z,100833.81
2022-10-09T03:13:39.747Z,100848.75
2022-10-09T03:16:08.291Z,100845.16
2022-10-09T03:18:35.479Z,100849.91
2022-10-09T03:21:08.812Z,100845.16
2022-10-09T03:23:35.706Z,100846.59
2022-10-09T03:26:06.546Z,100845.97
2022-10-09T03:28:36.552Z,100839.28
2022-10-09T03:31:03.960Z,100843.28
2022-10-09T03:33:30.822Z,100841.88
2022-10-09T03:35:57.451Z,100841.31
2022-10-09T03:38:24.025Z,100855.53
2022-10-09T03:40:50.633Z,100851.50
2022-10-09T03:43:17.212Z,100851.84
2022-10-09T03:45:44.148Z,100859.03
2022-10-09T03:48:12.082Z,100863.38
2022-10-09T03:50:39.838Z,100860.25
2022-10-09T03:53:07.823Z,100857.41
2022-10-09T03:55:34.408Z,100858.66
2022-10-09T03:58:01.712Z,100864.81
2022-10-09T04:00:28.498Z,100862.47
2022-10-09T04:02:56.516Z,100855.91
2022-10-09T04:05:23.359Z,100856.06
2022-10-09T04:07:50.092Z,100855.94
2022-10-09T04:10:16.842Z,100865.78
2022-10-09T04:12:43.473Z,100870.00
2022-10-09T04:15:10.702Z,100861.88
2022-10-09T04:17:37.416Z,100866.34
2022-10-09T04:20:04.394Z,100860.03
2022-10-09T04:22:31.085Z,100874.97
2022-10-09T04:24:57.621Z,100868.81
2022-10-09T04:27:24.220Z,100874.63
2022-10-09T04:29:50.798Z,100865.94
2022-10-09T04:32:17.435Z,100856.66
2022-10-09T04:34:44.021Z,100858.59
2022-10-09T04:37:10.588Z,100863.56
2022-10-09T04:39:37.142Z,100870.22
2022-10-09T04:42:03.847Z,100865.69
2022-10-09T04:44:30.426Z,100870.34
2022-10-09T04:46:57.000Z,100876.81
2022-10-09T04:49:23.547Z,100887.25
2022-10-09T04:51:50.099Z,100881.72
2022-10-09T04:54:16.699Z,100890.94
2022-10-09T04:56:43.295Z,100897.81
2022-10-09T04:59:09.882Z,100891.31
2022-10-09T05:01:38.503Z,100895.13
2022-10-09T05:04:05.806Z,100885.81
2022-10-09T05:06:32.542Z,100893.78
2022-10-09T05:08:59.127Z,100891.94
2022-10-09T05:11:26.513Z,100902.91
2022-10-09T05:13:55.809Z,100915.94
2022-10-09T05:16:28.802Z,100927.47
2022-10-09T05:18:57.796Z,100926.94
2022-10-09T05:21:25.302Z,100926.72
2022-10-09T05:23:54.527Z,100918.66
2022-10-09T05:26:22.766Z,100906.38
2022-10-09T05:28:49.809Z,100910.25
2022-10-09T05:31:25.158Z,100919.13
2022-10-09T05:33:51.892Z,100924.19
2022-10-09T05:36:19.115Z,100918.56
2022-10-09T05:38:46.479Z,100919.34
2022-10-09T05:41:15.679Z,100912.28
2022-10-09T05:43:44.891Z,100918.06
2022-10-09T05:46:14.657Z,100919.44
2022-10-09T05:48:43.562Z,100933.06
2022-10-09T05:51:15.901Z,100939.44
2022-10-09T05:53:43.935Z,100940.22
2022-10-09T05:56:17.372Z,100943.41
2022-10-09T05:58:45.515Z,100943.94
2022-10-09T06:01:12.142Z,100946.97
2022-10-09T06:03:39.243Z,100943.44
2022-10-09T06:06:08.790Z,100949.78
2022-10-09T06:08:37.249Z,100951.84
2022-10-09T06:11:17.573Z,100954.34
2022-10-09T06:13:44.562Z,100954.50
2022-10-09T06:16:13.634Z,100956.34
2022-10-09T06:18:43.569Z,100965.59
2022-10-09T06:21:14.522Z,100966.25
2022-10-09T06:23:41.725Z,100971.59
2022-10-09T06:26:11.593Z,100973.31
2022-10-09T06:28:38.520Z,100969.66
2022-10-09T06:31:13.835Z,100982.47
2022-10-09T06:33:41.895Z,100984.19
2022-10-09T06:36:11.554Z,100980.28
2022-10-09T06:38:39.227Z,100986.41
2022-10-09T06:41:12.329Z,100984.94
2022-10-09T06:43:39.988Z,100992.09
2022-10-09T06:46:11.813Z,100996.28
2022-10-09T06:48:40.225Z,101001.16
2022-10-09T06:51:12.863Z,100996.50
2022-10-09T06:56:16.123Z,101001.25
2022-10-09T06:58:43.363Z,101000.59
2022-10-09T07:01:14.395Z,101006.97
2022-10-09T07:03:43.805Z,101010.31
2022-10-09T07:06:19.112Z,101013.97
2022-10-09T07:08:48.953Z,101019.72
2022-10-09T07:11:16.924Z,101021.28
2022-10-09T07:13:44.192Z,101018.09
2022-10-09T07:16:11.607Z,101021.19
2022-10-09T07:18:38.964Z,101019.13
2022-10-09T07:21:08.247Z,101028.72
2022-10-09T07:23:36.082Z,101030.69
2022-10-09T07:26:09.043Z,101020.37
2022-10-09T07:28:35.674Z,101032.41
2022-10-09T07:31:04.208Z,101034.66
2022-10-09T07:33:30.900Z,101034.91
2022-10-09T07:35:59.743Z,101042.12
2022-10-09T07:38:28.012Z,101048.72
2022-10-09T07:40:59.147Z,101047.66
2022-10-09T07:43:25.691Z,101039.34
2022-10-09T07:45:52.297Z,101048.72
2022-10-09T07:48:18.900Z,101050.00
2022-10-09T07:50:45.410Z,101041.28
2022-10-09T07:53:11.957Z,101057.53
2022-10-09T07:55:45.495Z,101056.44
2022-10-09T07:58:12.333Z,101056.03
2022-10-09T08:00:38.913Z,101058.38
2022-10-09T08:03:05.582Z,101058.00
2022-10-09T08:05:32.207Z,101057.25
2022-10-09T08:07:58.799Z,101061.91
2022-10-09T08:10:25.538Z,101061.97
2022-10-09T08:12:52.407Z,101058.16
2022-10-09T08:15:19.119Z,101060.87
2022-10-09T08:17:45.872Z,101069.47
2022-10-09T08:20:12.446Z,101065.88
2022-10-09T08:22:38.993Z,101065.34
2022-10-09T08:25:06.141Z,101061.66
2022-10-09T08:27:32.985Z,101060.13
2022-10-09T08:29:59.687Z,101063.94
2022-10-09T08:32:26.280Z,101068.81
2022-10-09T08:34:52.981Z,101061.69
2022-10-09T08:37:19.688Z,101066.59
2022-10-09T08:39:46.300Z,101074.75
2022-10-09T08:42:28.586Z,101069.06
2022-10-09T08:44:55.448Z,101073.91
2022-10-09T08:47:31.157Z,101084.81
2022-10-09T08:50:11.312Z,101086.19
2022-10-09T08:53:14.719Z,101078.91
2022-10-09T08:55:47.136Z,101090.53
2022-10-09T08:58:20.236Z,101094.00
2022-10-09T09:00:54.364Z,101097.22
2022-10-09T09:04:12.154Z,101092.72
2022-10-09T09:06:50.379Z,101089.22
2022-10-09T09:09:54.400Z,101093.38
2022-10-09T09:12:48.985Z,101084.78
2022-10-09T09:15:25.466Z,101097.34
2022-10-09T09:18:13.137Z,101098.13
2022-10-09T09:21:02.053Z,101097.91
2022-10-09T09:23:33.171Z,101101.47
2022-10-09T09:26:01.790Z,101118.09
2022-10-09T09:28:31.756Z,101111.97
2022-10-09T09:31:19.425Z,101112.28
2022-10-09T09:34:04.508Z,101108.78
2022-10-09T09:36:38.979Z,101105.84
2022-10-09T09:40:00.961Z,101114.59
2022-10-09T09:41:55.426Z,101120.72
2022-10-09T09:44:22.223Z,101115.03
2022-10-09T09:46:52.070Z,101114.44
2022-10-09T09:49:19.943Z,101110.59
2022-10-09T09:51:48.827Z,101119.91
2022-10-09T09:54:26.093Z,101115.19
2022-10-09T09:57:18.260Z,101122.63
2022-10-09T09:59:45.482Z,101121.69
2022-10-09T10:02:21.377Z,101120.78
2022-10-09T10:05:14.621Z,101116.25
2022-10-09T10:07:43.414Z,101128.19
2022-10-09T10:10:10.070Z,101117.06
2022-10-09T10:12:56.422Z,101124.19
2022-10-09T10:15:33.997Z,101124.19
2022-10-09T10:18:13.071Z,101125.03
2022-10-09T10:20:50.236Z,101127.44
2022-10-09T10:23:34.343Z,101132.91
2022-10-09T10:26:09.543Z,101124.44
2022-10-09T10:28:48.948Z,101117.22
2022-10-09T10:31:47.782Z,101124.00
2022-10-09T10:34:19.541Z,101130.56
2022-10-09T10:36:47.863Z,101124.00
2022-10-09T10:39:58.240Z,101126.81
2022-10-09T10:42:34.039Z,101123.88
2022-10-09T10:45:13.166Z,101133.50
2022-10-09T10:47:45.751Z,101121.37
2022-10-09T10:50:16.819Z,101125.16
2022-10-09T10:53:01.493Z,101129.75
2022-10-09T10:55:42.817Z,101122.66
2022-10-09T10:58:23.954Z,101131.31
2022-10-09T11:01:25.038Z,101120.12
2022-10-09T11:04:23.535Z,101117.81
2022-10-09T11:06:56.198Z,101118.16
2022-10-09T11:09:22.691Z,101111.47
2022-10-09T11:12:00.030Z,101113.34
2022-10-09T11:14:35.666Z,101106.78
2022-10-09T11:17:12.953Z,101111.84
2022-10-09T11:19:52.474Z,101111.13
2022-10-09T11:22:31.052Z,101107.87
2022-10-09T11:25:11.268Z,101112.59
2022-10-09T11:27:41.774Z,101099.38
2022-10-09T11:30:14.536Z,101110.56
2022-10-09T11:32:54.833Z,101105.50
2022-10-09T11:35:24.131Z,101107.28
2022-10-09T11:38:01.837Z,101102.38
2022-10-09T11:40:40.154Z,101098.37
2022-10-09T11:43:25.193Z,101098.75
2022-10-09T11:46:10.341Z,101095.22
2022-10-09T11:48:54.781Z,101101.22
2022-10-09T11:51:33.743Z,101102.34
2022-10-09T11:54:02.152Z,101102.66
2022-10-09T11:56:31.967Z,101088.84
2022-10-09T11:59:01.448Z,101088.06
2022-10-09T12:01:41.485Z,101096.03
2022-10-09T12:04:20.821Z,101099.28
2022-10-09T12:07:00.242Z,101091.75
2022-10-09T12:09:30.428Z,101090.78
2022-10-09T12:12:07.188Z,101098.47
2022-10-09T12:14:37.552Z,101095.97
2022-10-09T12:17:23.734Z,101088.09
2022-10-09T12:19:58.571Z,101081.69
2022-10-09T12:22:35.954Z,101077.59
2022-10-09T12:25:08.413Z,101079.84
2022-10-09T12:27:39.285Z,101083.38
2022-10-09T12:30:12.701Z,101091.06
2022-10-09T12:32:48.310Z,101089.84
2022-10-09T12:35:38.176Z,101094.47
2022-10-09T12:38:37.157Z,101082.81
2022-10-09T12:41:11.028Z,101081.91
2022-10-09T12:43:45.016Z,101070.34
2022-10-09T12:46:11.688Z,101071.66
2022-10-09T12:48:43.291Z,101071.88
2022-10-09T12:51:36.164Z,101068.25
2022-10-09T12:54:09.114Z,101071.97
2022-10-09T12:56:38.530Z,101072.47
2022-10-09T12:59:07.058Z,101068.53
2022-10-09T13:01:35.516Z,101062.94
2022-10-09T13:04:04.645Z,101061.34
2022-10-09T13:06:44.206Z,101054.72
2022-10-09T13:09:23.076Z,101059.75
2022-10-09T13:11:57.794Z,101056.31
2022-10-09T13:14:28.600Z,101057.34
2022-10-09T13:16:55.260Z,101055.44
2022-10-09T13:19:21.905Z,101056.53
2022-10-09T13:22:06.712Z,101062.09
2022-10-09T13:24:34.430Z,101050.06
2022-10-09T13:27:01.306Z,101044.06
2022-10-09T13:29:28.351Z,101054.09
2022-10-09T13:31:54.943Z,101047.03
2022-10-09T13:34:23.759Z,101042.97
2022-10-09T13:36:50.632Z,101035.59
2022-10-09T13:39:17.571Z,101037.44
2022-10-09T13:41:44.898Z,101039.50
2022-10-09T13:44:11.496Z,101030.34
2022-10-09T13:46:38.089Z,101040.87
2022-10-09T13:49:04.706Z,101038.56
2022-10-09T13:51:32.067Z,101029.38
2022-10-09T13:53:58.640Z,101028.38
2022-10-09T13:56:26.154Z,101027.91
2022-10-09T13:58:52.845Z,101021.28
2022-10-09T14:01:19.517Z,101020.28
2022-10-09T14:03:46.246Z,101023.69
2022-10-09T14:06:12.957Z,101027.94
2022-10-09T14:08:39.612Z,101021.53
2022-10-09T14:11:06.549Z,101016.81
2022-10-09T14:13:33.195Z,101022.53
2022-10-09T14:16:03.274Z,101027.53
2022-10-09T14:18:31.073Z,101022.44
2022-10-09T14:20:57.672Z,101026.06
2022-10-09T14:23:24.252Z,101030.78
2022-10-09T14:25:51.345Z,101024.16
2022-10-09T14:28:18.028Z,101026.25
2022-10-09T14:30:44.794Z,101031.22
2022-10-09T14:33:12.818Z,101028.72
2022-10-09T14:35:39.706Z,101029.94
2022-10-09T14:38:06.246Z,101027.63
2022-10-09T14:40:32.893Z,101031.69
2022-10-09T14:42:59.461Z,101030.63
2022-10-09T14:45:26.100Z,101031.78
2022-10-09T14:47:52.649Z,101033.75
2022-10-09T14:50:19.167Z,101034.81
2022-10-09T14:52:45.728Z,101039.88
2022-10-09T14:55:12.319Z,101040.94
2022-10-09T14:57:38.898Z,101033.03
2022-10-09T15:00:06.400Z,101037.13
2022-10-09T15:02:33.060Z,101038.41
2022-10-09T15:04:59.672Z,101041.06
2022-10-09T15:07:28.175Z,101036.25
2022-10-09T15:09:55.121Z,101036.28
2022-10-09T15:12:21.691Z,101041.44
2022-10-09T15:14:48.333Z,101044.88
2022-10-09T15:17:15.173Z,101047.31
2022-10-09T15:19:41.754Z,101045.94
2022-10-09T15:22:08.627Z,101041.38
2022-10-09T15:24:35.225Z,101039.38
2022-10-09T15:27:01.769Z,101046.84
2022-10-09T15:29:28.321Z,101043.87
2022-10-09T15:31:54.977Z,101046.91
2022-10-09T15:34:21.572Z,101049.00
2022-10-09T15:36:48.275Z,101063.44
2022-10-09T15:39:15.144Z,101056.16
2022-10-09T15:41:43.242Z,101057.78
2022-10-09T15:44:16.617Z,101059.72
2022-10-09T15:46:43.904Z,101057.53
2022-10-09T15:49:10.519Z,101064.19
2022-10-09T15:51:37.674Z,101064.50
2022-10-09T15:54:04.511Z,101061.22
2022-10-09T15:56:33.817Z,101063.03
2022-10-09T15:59:02.699Z,101060.16
2022-10-09T16:01:29.309Z,101068.78
2022-10-09T16:03:56.978Z,101065.00
2022-10-09T16:06:24.063Z,101066.12
2022-10-09T16:08:51.235Z,101068.00
2022-10-09T16:11:21.675Z,101071.97
2022-10-09T16:13:52.141Z,101078.75
2022-10-09T16:16:21.133Z,101074.06
2022-10-09T16:18:48.011Z,101079.44
2022-10-09T16:21:21.085Z,101088.47
2022-10-09T16:23:48.306Z,101083.97
2022-10-09T16:26:18.460Z,101092.72
2022-10-09T16:28:45.728Z,101089.81
2022-10-09T16:31:24.626Z,101102.00
2022-10-09T16:33:51.608Z,101092.78
2022-10-09T16:36:18.285Z,101099.28
2022-10-09T16:38:45.100Z,101108.63
2022-10-09T16:41:18.289Z,101111.87
2022-10-09T16:43:47.056Z,101111.78
2022-10-09T16:46:19.839Z,101103.59
2022-10-09T16:48:47.791Z,101107.87
2022-10-09T16:51:17.338Z,101118.37
2022-10-09T16:53:44.143Z,101114.38
2022-10-09T16:56:16.595Z,101123.00
2022-10-09T16:58:43.967Z,101123.22
2022-10-09T17:01:11.273Z,101132.84
2022-10-09T17:03:42.106Z,101132.06
2022-10-09T17:06:11.870Z,101131.87
2022-10-09T17:08:39.299Z,101130.84
2022-10-09T17:11:12.488Z,101131.81
2022-10-09T17:13:40.161Z,101135.88
2022-10-09T17:16:13.222Z,101131.84
2022-10-09T17:18:42.385Z,101142.13
2022-10-09T17:21:11.953Z,101131.25
2022-10-09T17:23:39.124Z,101141.53
2022-10-09T17:26:11.908Z,101134.31
2022-10-09T17:28:39.659Z,101139.31
2022-10-09T17:31:08.840Z,101133.31
2022-10-09T17:33:41.984Z,101144.78
2022-10-09T17:36:09.857Z,101140.34
2022-10-09T17:38:36.843Z,101153.44
2022-10-09T17:41:05.577Z,101150.19
2022-10-09T17:43:33.118Z,101141.75
2022-10-09T17:46:03.447Z,101145.94
2022-10-09T17:48:32.796Z,101146.53
2022-10-09T17:51:01.326Z,101138.50
2022-10-09T17:53:28.067Z,101152.56
2022-10-09T17:55:56.950Z,101146.78
2022-10-09T17:58:24.383Z,101152.56
2022-10-09T18:00:51.263Z,101148.53
2022-10-09T18:03:19.035Z,101151.13
2022-10-09T18:05:48.135Z,101156.16
2022-10-09T18:08:17.151Z,101150.78
2022-10-09T18:10:45.038Z,101154.97
2022-10-09T18:13:11.890Z,101159.37
2022-10-09T18:15:48.681Z,101158.38
2022-10-09T18:18:15.633Z,101152.13
2022-10-09T18:20:42.282Z,101159.91
2022-10-09T18:23:09.039Z,101160.94
2022-10-09T18:25:40.832Z,101150.03
2022-10-09T18:28:07.823Z,101162.50
2022-10-09T18:30:34.626Z,101163.75
2022-10-09T18:33:01.221Z,101162.16
2022-10-09T18:35:30.381Z,101170.19
2022-10-09T18:37:56.991Z,101172.22
2022-10-09T18:40:23.592Z,101168.56
2022-10-09T18:42:50.419Z,101177.16
2022-10-09T18:45:17.290Z,101172.44
2022-10-09T18:47:44.150Z,101183.25
2022-10-09T18:50:13.011Z,101187.62
2022-10-09T18:52:41.513Z,101186.59
2022-10-09T18:57:55.930Z,101196.34
2022-10-09T19:00:22.608Z,101203.28
2022-10-09T19:02:49.363Z,101197.75
2022-10-09T19:05:16.234Z,101201.28
2022-10-09T19:07:42.957Z,101204.81
2022-10-09T19:10:09.887Z,101195.06
2022-10-09T19:12:37.012Z,101205.38
2022-10-09T19:15:09.614Z,101212.00
2022-10-09T19:17:38.908Z,101215.50
2022-10-09T19:20:06.289Z,101218.22
2022-10-09T19:22:32.945Z,101217.25
2022-10-09T19:25:16.013Z,101213.50
2022-10-09T19:27:44.205Z,101216.63
2022-10-09T19:30:11.234Z,101220.16
2022-10-09T19:32:38.019Z,101226.44
2022-10-09T19:35:05.624Z,101226.97
2022-10-09T19:37:52.448Z,101227.31
2022-10-09T19:40:38.793Z,101228.12
2022-10-09T19:43:15.961Z,101233.69
2022-10-09T19:45:43.784Z,101237.09
2022-10-09T19:48:11.380Z,101246.78
2022-10-09T19:50:43.128Z,101247.69
2022-10-09T19:53:11.001Z,101252.00
2022-10-09T19:55:38.082Z,101249.56
2022-10-09T19:58:05.406Z,101239.03
2022-10-09T20:00:32.226Z,101251.06
2022-10-09T20:02:58.870Z,101253.78
2022-10-09T20:05:25.782Z,101252.50
2022-10-09T20:07:52.391Z,101259.59
2022-10-09T20:10:19.127Z,101263.25
2022-10-09T20:12:45.808Z,101256.94
2022-10-09T20:15:12.471Z,101260.09
2022-10-09T20:17:39.108Z,101257.69
2022-10-09T20:20:06.596Z,101261.22
2022-10-09T20:22:33.282Z,101262.19
2022-10-09T20:25:04.413Z,101265.47
2022-10-09T20:27:31.093Z,101260.63
2022-10-09T20:29:57.707Z,101264.22
2022-10-09T20:32:27.186Z,101265.47
2022-10-09T20:34:54.075Z,101256.34
2022-10-09T20:37:20.744Z,101263.06
2022-10-09T20:39:47.434Z,101258.03
2022-10-09T20:42:14.090Z,101269.62
2022-10-09T20:44:40.787Z,101266.84
2022-10-09T20:47:07.682Z,101269.88
2022-10-09T20:49:34.452Z,101271.06
2022-10-09T20:52:01.083Z,101270.38
2022-10-09T20:54:28.115Z,101270.63
2022-10-09T20:56:56.360Z,101274.13
2022-10-09T20:59:23.275Z,101272.62
2022-10-09T21:01:50.134Z,101272.00
2022-10-09T21:04:16.797Z,101267.37
2022-10-09T21:06:43.771Z,101268.91
2022-10-09T21:09:10.615Z,101271.00
2022-10-09T21:11:39.007Z,101274.63
2022-10-09T21:14:05.797Z,101275.38
2022-10-09T21:16:32.522Z,101277.84
2022-10-09T21:19:04.182Z,101281.56
2022-10-09T21:21:31.351Z,101272.81
2022-10-09T21:24:00.095Z,101274.88
2022-10-09T21:26:28.016Z,101264.56
2022-10-09T21:28:59.342Z,101268.09
2022-10-09T21:31:30.262Z,101266.16
2022-10-09T21:33:57.378Z,101272.56
2022-10-09T21:36:51.033Z,101279.38
2022-10-09T21:39:22.817Z,101267.72
2022-10-09T21:41:49.627Z,101271.50
2022-10-09T21:44:16.251Z,101261.97
2022-10-09T21:46:42.912Z,101264.31
2022-10-09T21:49:24.186Z,101262.91
2022-10-09T21:51:50.852Z,101263.75
2022-10-09T21:54:17.648Z,101262.19
2022-10-09T21:56:44.458Z,101250.59
2022-10-09T21:59:11.589Z,101250.84
2022-10-09T22:01:38.716Z,101246.63
2022-10-09T22:04:05.384Z,101258.16
2022-10-09T22:06:32.035Z,101260.87
2022-10-09T22:08:59.867Z,101262.22
2022-10-09T22:11:26.553Z,101262.97
2022-10-09T22:13:55.007Z,101257.41
2022-10-09T22:16:21.704Z,101264.16
2022-10-09T22:18:48.272Z,101263.87
2022-10-09T22:21:15.964Z,101262.09
2022-10-09T22:23:43.354Z,101267.87
2022-10-09T22:26:17.788Z,101263.00
2022-10-09T22:28:46.396Z,101261.84
2022-10-09T22:31:26.264Z,101266.06
2022-10-09T22:34:01.427Z,101268.75
2022-10-09T22:36:31.096Z,101273.69
2022-10-09T22:39:00.338Z,101268.66
2022-10-09T22:41:36.183Z,101271.19
2022-10-09T22:44:05.300Z,101272.81
2022-10-09T22:46:38.071Z,101268.94
2022-10-09T22:49:06.801Z,101265.91
2022-10-09T22:51:33.954Z,101269.81
2022-10-09T22:54:01.113Z,101272.06
2022-10-09T22:56:37.313Z,101272.00
2022-10-09T22:59:05.590Z,101272.34
2022-10-09T23:01:35.829Z,101269.94
2022-10-09T23:04:05.398Z,101274.31
2022-10-09T23:06:32.685Z,101273.50
2022-10-09T23:09:00.497Z,101272.78
2022-10-09T23:11:27.371Z,101277.69
2022-10-09T23:13:59.001Z,101285.19
2022-10-09T23:16:27.198Z,101277.28
2022-10-09T23:18:53.830Z,101286.25
2022-10-09T23:21:22.572Z,101275.41
2022-10-09T23:23:50.371Z,101276.09
2022-10-09T23:26:28.670Z,101280.19
2022-10-09T23:28:57.915Z,101281.53
2022-10-09T23:31:26.838Z,101280.47
2022-10-09T23:33:54.821Z,101280.78
2022-10-09T23:36:23.796Z,101279.75
2022-10-09T23:38:50.847Z,101285.13
2022-10-09T23:41:20.420Z,101291.66
2022-10-09T23:43:48.385Z,101284.13
2022-10-09T23:46:21.641Z,101288.63
2022-10-09T23:48:50.682Z,101281.53
2022-10-09T23:51:19.910Z,101280.00
2022-10-09T23:53:47.200Z,101283.75
2022-10-09T23:56:25.053Z,101273.09
2022-10-09T23:58:52.569Z,101276.63
